Time;durP1;ratioP1;P1;durP2;ratioP2;P2;SDS_P1;SDS_P2;PMS_P1;PMS_P2;Temp;Humidity;BMP_temperature;BMP_pressure;BME280_temperature;BME280_humidity;BME280_pressure;Samples;Min_cycle;Max_cycle;Signal;HPM_P1;HPM_P2
2023/10/26 01:26:32;;;;;;;7.50;3.92;;;;;;;;;;4976209;28;20069;-72
2023/10/26 01:29:02;;;;;;;8.18;4.43;;;;;;;;;;4982219;28;20159;-71
2023/10/26 01:31:27;;;;;;;8.32;3.95;;;;;;;;;;4968629;28;20085;-71
2023/10/26 01:33:53;;;;;;;11.57;4.47;;;;;;;;;;4985431;28;20026;-70
2023/10/26 01:36:18;;;;;;;7.80;4.10;;;;;;;;;;5015187;28;20105;-73
2023/10/26 01:38:43;;;;;;;8.05;3.67;;;;;;;;;;4980633;28;20033;-73
2023/10/26 01:41:09;;;;;;;8.43;4.63;;;;;;;;;;4997275;28;20030;-72
2023/10/26 01:43:34;;;;;;;9.63;4.45;;;;;;;;;;4981259;28;20026;-72
2023/10/26 01:45:59;;;;;;;9.32;4.68;;;;;;;;;;5015149;28;20434;-73
2023/10/26 01:48:25;;;;;;;13.70;5.53;;;;;;;;;;5014426;28;20026;-73
2023/10/26 01:50:50;;;;;;;8.20;4.28;;;;;;;;;;4996445;28;20056;-73
2023/10/26 01:53:16;;;;;;;7.95;4.40;;;;;;;;;;4997380;28;20057;-73
2023/10/26 01:55:41;;;;;;;7.68;4.30;;;;;;;;;;5014293;28;20034;-73
2023/10/26 01:58:06;;;;;;;7.25;3.90;;;;;;;;;;5014397;28;20076;-73
2023/10/26 02:00:31;;;;;;;6.32;4.22;;;;;;;;;;4996585;28;20030;-73
2023/10/26 02:02:57;;;;;;;8.40;4.30;;;;;;;;;;5014560;28;20084;-73
2023/10/26 02:05:22;;;;;;;11.60;5.30;;;;;;;;;;4996994;28;20022;-73
2023/10/26 02:07:47;;;;;;;7.45;4.10;;;;;;;;;;5013838;28;20025;-73
2023/10/26 02:10:14;;;;;;;12.13;4.47;;;;;;;;;;4996188;28;20541;-73
2023/10/26 02:12:39;;;;;;;9.27;4.07;;;;;;;;;;5013547;28;20025;-73
2023/10/26 02:15:05;;;;;;;9.90;4.50;;;;;;;;;;5013899;28;20032;-73
2023/10/26 02:17:30;;;;;;;8.65;4.93;;;;;;;;;;5013862;28;20737;-73
2023/10/26 02:19:56;;;;;;;6.82;3.92;;;;;;;;;;5013563;28;20053;-73
2023/10/26 02:22:21;;;;;;;9.55;4.05;;;;;;;;;;5008607;28;20120;-73
2023/10/26 02:24:46;;;;;;;9.57;3.92;;;;;;;;;;4993878;28;20049;-73
2023/10/26 02:27:14;;;;;;;7.68;4.22;;;;;;;;;;5009501;28;20030;-73
2023/10/26 02:29:39;;;;;;;10.60;5.32;;;;;;;;;;4995630;28;20021;-73
2023/10/26 02:32:06;;;;;;;8.45;4.30;;;;;;;;;;4996221;28;20026;-73
2023/10/26 02:34:31;;;;;;;7.45;3.97;;;;;;;;;;4970792;28;20117;-73
2023/10/26 02:36:57;;;;;;;11.18;4.18;;;;;;;;;;4974817;28;20076;-74
2023/10/26 02:39:22;;;;;;;11.70;5.18;;;;;;;;;;4996455;28;20026;-73
2023/10/26 02:41:48;;;;;;;8.18;3.90;;;;;;;;;;5013460;28;20022;-73
2023/10/26 02:44:13;;;;;;;8.70;4.18;;;;;;;;;;5013284;28;20033;-73
2023/10/26 02:46:38;;;;;;;9.65;4.65;;;;;;;;;;5013589;28;20071;-73
2023/10/26 02:49:03;;;;;;;8.18;4.50;;;;;;;;;;5013795;28;20026;-72
2023/10/26 02:51:29;;;;;;;10.90;4.53;;;;;;;;;;5013258;28;20030;-73
2023/10/26 02:53:54;;;;;;;9.13;4.43;;;;;;;;;;5013555;28;20033;-73
2023/10/26 02:56:19;;;;;;;11.52;5.40;;;;;;;;;;5013510;28;20394;-73
2023/10/26 02:58:44;;;;;;;10.15;4.90;;;;;;;;;;5012544;28;20022;-73
2023/10/26 03:01:10;;;;;;;10.05;4.40;;;;;;;;;;5013503;28;20026;-73
2023/10/26 03:03:35;;;;;;;9.95;4.43;;;;;;;;;;4996144;28;20061;-73
2023/10/26 03:06:00;;;;;;;19.15;4.60;;;;;;;;;;5013153;28;20077;-74
2023/10/26 03:08:26;;;;;;;8.75;3.90;;;;;;;;;;4995352;28;20116;-73
2023/10/26 03:10:51;;;;;;;11.07;4.85;;;;;;;;;;4995924;28;20021;-73
2023/10/26 03:13:16;;;;;;;9.30;4.90;;;;;;;;;;5003516;28;20019;-73
2023/10/26 03:15:42;;;;;;;12.30;5.00;;;;;;;;;;4992005;28;20030;-73
2023/10/26 03:18:07;;;;;;;8.05;4.47;;;;;;;;;;4993528;28;20455;-73
2023/10/26 03:20:33;;;;;;;11.15;4.40;;;;;;;;;;4992566;28;20019;-72
2023/10/26 03:22:58;;;;;;;10.55;5.30;;;;;;;;;;4960197;28;20125;-72
2023/10/26 03:25:24;;;;;;;10.65;5.32;;;;;;;;;;4992444;28;20018;-73
2023/10/26 03:27:49;;;;;;;11.90;5.10;;;;;;;;;;4980738;28;20110;-73
2023/10/26 03:30:15;;;;;;;11.00;5.10;;;;;;;;;;4999973;28;20075;-73
2023/10/26 03:32:41;;;;;;;8.73;4.80;;;;;;;;;;4992174;28;20031;-73
2023/10/26 03:35:08;;;;;;;10.40;6.18;;;;;;;;;;4973819;28;20505;-73
2023/10/26 03:37:33;;;;;;;11.50;5.15;;;;;;;;;;4956961;28;20030;-73
2023/10/26 03:39:59;;;;;;;11.80;5.05;;;;;;;;;;4974083;28;20154;-73
2023/10/26 03:42:24;;;;;;;9.38;4.70;;;;;;;;;;4983231;28;20498;-73
2023/10/26 03:44:50;;;;;;;10.30;4.75;;;;;;;;;;4998490;28;20021;-73
2023/10/26 03:47:17;;;;;;;8.20;4.78;;;;;;;;;;5013132;28;20156;-73
2023/10/26 03:49:42;;;;;;;11.30;5.95;;;;;;;;;;4995437;28;20391;-73
2023/10/26 03:52:08;;;;;;;14.18;4.70;;;;;;;;;;4995421;28;20025;-73
2023/10/26 03:54:33;;;;;;;8.85;4.40;;;;;;;;;;5012437;28;20034;-73
2023/10/26 03:56:58;;;;;;;10.50;3.95;;;;;;;;;;5012642;28;20030;-73
2023/10/26 03:59:23;;;;;;;10.50;4.65;;;;;;;;;;5012791;28;20614;-73
2023/10/26 04:01:49;;;;;;;10.02;4.40;;;;;;;;;;4995197;28;20030;-73
2023/10/26 04:04:14;;;;;;;9.68;3.80;;;;;;;;;;4979044;28;20030;-72
2023/10/26 04:06:39;;;;;;;6.75;3.78;;;;;;;;;;4994296;28;20022;-73
2023/10/26 04:09:04;;;;;;;8.70;4.47;;;;;;;;;;4995375;28;20101;-73
2023/10/26 04:11:30;;;;;;;10.07;3.40;;;;;;;;;;5012438;28;20041;-72
2023/10/26 04:13:57;;;;;;;8.88;3.58;;;;;;;;;;5012784;28;20077;-73
2023/10/26 04:16:23;;;;;;;5.45;3.40;;;;;;;;;;4995492;28;20033;-73
2023/10/26 04:18:48;;;;;;;6.95;3.10;;;;;;;;;;5014506;28;20080;-74
2023/10/26 04:21:13;;;;;;;6.80;3.30;;;;;;;;;;5016327;28;20475;-73
2023/10/26 04:23:39;;;;;;;6.30;2.60;;;;;;;;;;5015869;28;20060;-73
2023/10/26 04:26:05;;;;;;;5.03;2.47;;;;;;;;;;4998651;28;20475;-73
2023/10/26 04:28:30;;;;;;;4.47;2.50;;;;;;;;;;4998503;28;20022;-74
2023/10/26 04:30:55;;;;;;;4.63;2.55;;;;;;;;;;5016156;28;20625;-73
2023/10/26 04:33:20;;;;;;;4.50;2.28;;;;;;;;;;5015628;28;20029;-73
2023/10/26 04:35:47;;;;;;;3.45;1.88;;;;;;;;;;4999016;28;20034;-72
2023/10/26 04:38:12;;;;;;;5.13;2.30;;;;;;;;;;5015330;28;20156;-72
2023/10/26 04:40:38;;;;;;;4.85;2.28;;;;;;;;;;4998422;28;20118;-72
2023/10/26 04:43:04;;;;;;;5.50;2.30;;;;;;;;;;5015709;28;20033;-73
2023/10/26 04:45:29;;;;;;;4.50;1.80;;;;;;;;;;4998399;28;20022;-73
2023/10/26 04:47:55;;;;;;;3.95;2.10;;;;;;;;;;5015454;28;20575;-73
2023/10/26 04:50:20;;;;;;;3.50;2.00;;;;;;;;;;4998112;28;20055;-73
2023/10/26 04:52:47;;;;;;;2.45;1.73;;;;;;;;;;5015256;28;20058;-73
2023/10/26 04:55:13;;;;;;;3.85;1.70;;;;;;;;;;5015715;28;20482;-73
2023/10/26 04:57:38;;;;;;;4.30;1.92;;;;;;;;;;4998143;28;20032;-73
2023/10/26 05:00:08;;;;;;;4.88;1.60;;;;;;;;;;5015120;28;20025;-73
2023/10/26 05:02:34;;;;;;;7.38;1.60;;;;;;;;;;4999366;28;20061;-73
2023/10/26 05:04:59;;;;;;;2.60;1.40;;;;;;;;;;4959256;28;20476;-73
2023/10/26 05:07:24;;;;;;;3.88;1.90;;;;;;;;;;4964378;28;20035;-73
2023/10/26 05:09:49;;;;;;;3.15;1.33;;;;;;;;;;4959668;28;20019;-74
2023/10/26 05:12:15;;;;;;;4.10;1.50;;;;;;;;;;5001704;28;20494;-73
2023/10/26 05:14:40;;;;;;;3.17;1.70;;;;;;;;;;4995526;28;20030;-74
2023/10/26 05:17:05;;;;;;;4.10;1.70;;;;;;;;;;4980307;28;20062;-74
2023/10/26 05:19:32;;;;;;;2.97;1.83;;;;;;;;;;4975931;28;20034;-74
2023/10/26 05:21:58;;;;;;;3.72;1.63;;;;;;;;;;4980060;28;20050;-74
2023/10/26 05:24:23;;;;;;;2.47;1.42;;;;;;;;;;5006171;28;20030;-73
2023/10/26 05:26:48;;;;;;;3.92;1.67;;;;;;;;;;5014547;28;20026;-73
2023/10/26 05:29:13;;;;;;;3.65;2.30;;;;;;;;;;4996614;28;20018;-73
2023/10/26 05:31:39;;;;;;;3.53;1.98;;;;;;;;;;4997622;28;20018;-74
2023/10/26 05:34:04;;;;;;;4.28;1.75;;;;;;;;;;5014619;28;20045;-73
2023/10/26 05:36:29;;;;;;;3.47;2.00;;;;;;;;;;5015144;28;20026;-73
2023/10/26 05:38:55;;;;;;;2.88;1.52;;;;;;;;;;4998196;28;20037;-73
2023/10/26 05:41:20;;;;;;;6.57;1.90;;;;;;;;;;4993981;28;20030;-74
2023/10/26 05:43:45;;;;;;;5.40;1.80;;;;;;;;;;4982345;28;20085;-74
2023/10/26 05:46:11;;;;;;;3.55;1.55;;;;;;;;;;4975746;28;20066;-74
2023/10/26 05:48:37;;;;;;;3.25;1.58;;;;;;;;;;4974650;28;20034;-74
2023/10/26 05:51:02;;;;;;;3.65;2.05;;;;;;;;;;5014668;28;20038;-73
2023/10/26 05:53:28;;;;;;;5.70;2.35;;;;;;;;;;4996200;28;20076;-73
2023/10/26 05:55:59;;;;;;;6.10;1.98;;;;;;;;;;5014471;28;20025;-73
2023/10/26 05:58:25;;;;;;;2.65;2.20;;;;;;;;;;5014151;28;20368;-73
2023/10/26 06:00:51;;;;;;;3.25;1.73;;;;;;;;;;4980782;28;20025;-73
2023/10/26 06:03:16;;;;;;;2.90;1.35;;;;;;;;;;4996199;28;20542;-73
2023/10/26 06:05:42;;;;;;;2.55;1.30;;;;;;;;;;5014570;28;20064;-73
2023/10/26 06:08:07;;;;;;;4.65;1.60;;;;;;;;;;4996340;28;20014;-73
2023/10/26 06:10:32;;;;;;;2.65;1.30;;;;;;;;;;4996887;28;20057;-73
2023/10/26 06:12:58;;;;;;;4.10;2.17;;;;;;;;;;5013138;28;20034;-74
2023/10/26 06:15:23;;;;;;;5.22;2.72;;;;;;;;;;5010497;28;20364;-74
2023/10/26 06:17:48;;;;;;;4.15;2.40;;;;;;;;;;4976909;28;20391;-73
2023/10/26 06:20:14;;;;;;;7.32;2.38;;;;;;;;;;4986978;28;20041;-73
2023/10/26 06:22:39;;;;;;;4.63;2.20;;;;;;;;;;4976532;28;20054;-73
2023/10/26 06:25:05;;;;;;;3.97;2.40;;;;;;;;;;4994210;28;20606;-74
2023/10/26 06:27:31;;;;;;;5.43;2.60;;;;;;;;;;4993279;28;20061;-73
2023/10/26 06:29:57;;;;;;;7.30;2.45;;;;;;;;;;4992894;28;20543;-73
2023/10/26 06:32:23;;;;;;;4.55;2.65;;;;;;;;;;5006163;28;20170;-73
2023/10/26 06:34:48;;;;;;;8.27;2.58;;;;;;;;;;4974974;28;20051;-73
2023/10/26 06:37:13;;;;;;;4.88;2.38;;;;;;;;;;4974293;28;20030;-73
2023/10/26 06:39:38;;;;;;;4.85;3.55;;;;;;;;;;4974033;28;20380;-73
2023/10/26 06:42:04;;;;;;;4.28;2.00;;;;;;;;;;4974236;28;20058;-73
2023/10/26 06:44:29;;;;;;;9.05;2.55;;;;;;;;;;4974298;28;20113;-73
2023/10/26 06:46:55;;;;;;;5.35;2.38;;;;;;;;;;4973982;28;20050;-73
2023/10/26 06:49:20;;;;;;;6.72;2.20;;;;;;;;;;4957192;28;20146;-73
2023/10/26 06:51:45;;;;;;;3.40;1.73;;;;;;;;;;4974647;28;20121;-73
2023/10/26 06:54:10;;;;;;;4.57;2.15;;;;;;;;;;4957042;28;20023;-73
2023/10/26 06:56:37;;;;;;;3.83;2.20;;;;;;;;;;4957051;28;20037;-73
2023/10/26 06:59:03;;;;;;;3.65;2.00;;;;;;;;;;4973856;28;20023;-73
2023/10/26 07:01:28;;;;;;;3.90;2.20;;;;;;;;;;4974291;28;20023;-73
2023/10/26 07:03:53;;;;;;;4.53;2.10;;;;;;;;;;4957101;28;20018;-73
2023/10/26 07:06:19;;;;;;;6.07;2.38;;;;;;;;;;4974232;28;20101;-72
2023/10/26 07:08:44;;;;;;;4.35;2.38;;;;;;;;;;4974144;28;20061;-73
2023/10/26 07:11:09;;;;;;;7.30;3.75;;;;;;;;;;4956197;28;20023;-73
2023/10/26 07:13:35;;;;;;;9.13;2.88;;;;;;;;;;4956788;28;20389;-73
2023/10/26 07:16:00;;;;;;;8.40;2.70;;;;;;;;;;4956716;28;20031;-73
2023/10/26 07:18:26;;;;;;;4.32;3.30;;;;;;;;;;4972886;28;20198;-72
2023/10/26 07:20:52;;;;;;;3.83;2.08;;;;;;;;;;4974267;28;20109;-72
2023/10/26 07:23:17;;;;;;;5.03;2.22;;;;;;;;;;4973486;28;20026;-73
2023/10/26 07:25:43;;;;;;;4.97;2.13;;;;;;;;;;4973931;28;20491;-73
2023/10/26 07:28:08;;;;;;;4.53;2.05;;;;;;;;;;4957173;28;20041;-72
2023/10/26 07:30:40;;;;;;;7.95;2.55;;;;;;;;;;4974569;28;20054;-73
2023/10/26 07:33:05;;;;;;;4.57;2.25;;;;;;;;;;4972672;28;20042;-73
2023/10/26 07:35:31;;;;;;;7.68;2.33;;;;;;;;;;5005546;23;20165;-72
2023/10/26 07:37:56;;;;;;;3.70;1.98;;;;;;;;;;5014185;28;20022;-72
2023/10/26 07:40:21;;;;;;;3.72;2.17;;;;;;;;;;5013691;28;20113;-71
2023/10/26 07:42:47;;;;;;;3.05;1.83;;;;;;;;;;5013740;28;20033;-72
2023/10/26 07:45:12;;;;;;;7.95;2.40;;;;;;;;;;4995868;28;20037;-72
2023/10/26 07:47:38;;;;;;;8.25;2.22;;;;;;;;;;4995923;28;20040;-72
2023/10/26 07:50:03;;;;;;;6.22;2.80;;;;;;;;;;5013628;28;20364;-72
2023/10/26 07:52:29;;;;;;;5.28;1.90;;;;;;;;;;5013923;28;20057;-72
2023/10/26 07:54:54;;;;;;;6.47;1.90;;;;;;;;;;5017637;28;20026;-72
2023/10/26 07:57:20;;;;;;;5.00;2.00;;;;;;;;;;5000134;28;20486;-72
2023/10/26 07:59:45;;;;;;;5.95;2.15;;;;;;;;;;5017808;28;20479;-72
2023/10/26 08:02:10;;;;;;;4.95;2.17;;;;;;;;;;4999536;28;20068;-72
2023/10/26 08:04:35;;;;;;;3.90;2.80;;;;;;;;;;5014159;28;20415;-72
2023/10/26 08:07:01;;;;;;;11.52;2.20;;;;;;;;;;5015172;28;20032;-70
2023/10/26 08:09:31;;;;;;;7.80;2.47;;;;;;;;;;5017214;28;20022;-73
2023/10/26 08:11:57;;;;;;;3.55;2.03;;;;;;;;;;5015190;28;20553;-72
2023/10/26 08:14:23;;;;;;;4.43;2.20;;;;;;;;;;4997631;28;20085;-72
2023/10/26 08:16:49;;;;;;;4.35;2.08;;;;;;;;;;4999408;28;20021;-72
2023/10/26 08:19:14;;;;;;;3.20;1.80;;;;;;;;;;5016137;28;20028;-72
2023/10/26 08:21:40;;;;;;;4.18;2.60;;;;;;;;;;5016407;28;20394;-72
2023/10/26 08:24:05;;;;;;;8.20;1.83;;;;;;;;;;4992141;28;20040;-72
2023/10/26 08:26:31;;;;;;;4.40;2.30;;;;;;;;;;4979747;28;20101;-72
2023/10/26 08:28:56;;;;;;;4.60;2.53;;;;;;;;;;5000532;28;20014;-72
2023/10/26 08:31:22;;;;;;;4.85;2.25;;;;;;;;;;5016883;28;20083;-72
2023/10/26 08:33:47;;;;;;;10.65;3.03;;;;;;;;;;4997703;28;20391;-72
2023/10/26 08:36:12;;;;;;;5.70;1.92;;;;;;;;;;4998068;28;20122;-72
2023/10/26 08:38:37;;;;;;;4.10;2.05;;;;;;;;;;4995606;28;20026;-72
2023/10/26 08:41:03;;;;;;;2.90;2.00;;;;;;;;;;4996894;28;20019;-72
2023/10/26 08:43:29;;;;;;;5.03;2.47;;;;;;;;;;4996908;28;20510;-70
2023/10/26 08:45:58;;;;;;;3.60;1.75;;;;;;;;;;4979344;28;20153;-70
2023/10/26 08:48:25;;;;;;;8.63;2.13;;;;;;;;;;4996760;28;20023;-70
2023/10/26 08:50:50;;;;;;;5.72;2.30;;;;;;;;;;4973084;28;20530;-71
2023/10/26 08:53:16;;;;;;;3.75;2.38;;;;;;;;;;5016637;28;20109;-71
2023/10/26 08:55:42;;;;;;;4.25;2.03;;;;;;;;;;5015969;28;20026;-72
2023/10/26 08:58:08;;;;;;;3.70;2.20;;;;;;;;;;4998736;28;20029;-71
2023/10/26 09:00:39;;;;;;;5.80;2.40;;;;;;;;;;5016233;28;20021;-71
2023/10/26 09:03:04;;;;;;;5.38;2.28;;;;;;;;;;5015639;28;20029;-72
2023/10/26 09:05:29;;;;;;;5.72;2.25;;;;;;;;;;5015092;28;20022;-71
2023/10/26 09:07:55;;;;;;;3.88;2.10;;;;;;;;;;5015934;28;20033;-72
2023/10/26 09:10:31;;;;;;;6.93;2.70;;;;;;;;;;5015634;28;20112;-72
2023/10/26 09:12:59;;;;;;;4.45;1.95;;;;;;;;;;4982314;28;20036;-72
2023/10/26 09:15:24;;;;;;;5.85;2.15;;;;;;;;;;4998626;28;20032;-71
2023/10/26 09:17:51;;;;;;;3.67;1.85;;;;;;;;;;5015757;28;20025;-72
2023/10/26 09:20:20;;;;;;;3.13;1.92;;;;;;;;;;5015921;28;20057;-71
2023/10/26 09:22:46;;;;;;;4.05;2.08;;;;;;;;;;4998976;28;20044;-72
2023/10/26 09:25:12;;;;;;;4.18;2.42;;;;;;;;;;5015429;28;20475;-72
2023/10/26 09:27:39;;;;;;;4.15;2.13;;;;;;;;;;5015680;28;20046;-71
2023/10/26 09:30:05;;;;;;;3.88;2.20;;;;;;;;;;4998083;28;20060;-72
2023/10/26 09:32:32;;;;;;;4.75;2.10;;;;;;;;;;4998345;28;20047;-72
2023/10/26 09:34:57;;;;;;;9.10;2.17;;;;;;;;;;5014927;28;20026;-72
2023/10/26 09:37:23;;;;;;;8.05;2.10;;;;;;;;;;5014373;28;20038;-72
2023/10/26 09:39:49;;;;;;;5.18;1.80;;;;;;;;;;5015479;28;20438;-72
2023/10/26 09:42:15;;;;;;;3.92;2.10;;;;;;;;;;4998325;28;20038;-72
2023/10/26 09:44:41;;;;;;;4.88;1.95;;;;;;;;;;4997644;28;20034;-73
2023/10/26 09:47:06;;;;;;;5.00;2.05;;;;;;;;;;5015547;28;20028;-72
2023/10/26 09:49:31;;;;;;;3.85;1.90;;;;;;;;;;5015722;28;20072;-72
2023/10/26 09:51:58;;;;;;;4.63;2.85;;;;;;;;;;5010352;28;20392;-72
2023/10/26 09:54:30;;;;;;;6.88;2.00;;;;;;;;;;4996108;28;20022;-72
2023/10/26 09:57:03;;;;;;;3.72;1.98;;;;;;;;;;4980816;28;20056;-72
2023/10/26 09:59:28;;;;;;;4.22;1.52;;;;;;;;;;4997166;28;20026;-72
2023/10/26 10:01:54;;;;;;;3.05;2.38;;;;;;;;;;4997244;28;20376;-72
2023/10/26 10:04:36;;;;;;;4.97;1.80;;;;;;;;;;5003156;28;20423;-72
2023/10/26 10:07:02;;;;;;;3.42;1.70;;;;;;;;;;4998410;28;20026;-72
2023/10/26 10:09:28;;;;;;;4.65;1.58;;;;;;;;;;4997792;28;20026;-72
2023/10/26 10:12:12;;;;;;;3.22;1.80;;;;;;;;;;4996892;28;20036;-72
2023/10/26 10:14:47;;;;;;;4.55;1.83;;;;;;;;;;5000354;28;20053;-72
2023/10/26 10:17:12;;;;;;;4.82;2.17;;;;;;;;;;5014444;28;20100;-72
2023/10/26 10:19:40;;;;;;;2.05;1.50;;;;;;;;;;4996744;28;20129;-72
2023/10/26 10:22:36;;;;;;;4.55;2.10;;;;;;;;;;5010200;28;20479;-72
2023/10/26 10:25:02;;;;;;;5.15;2.00;;;;;;;;;;4995022;28;20029;-73
2023/10/26 10:27:27;;;;;;;6.07;1.70;;;;;;;;;;5013338;28;20026;-72
2023/10/26 10:30:05;;;;;;;5.63;1.58;;;;;;;;;;4991214;28;20476;-72
2023/10/26 10:32:42;;;;;;;2.83;1.50;;;;;;;;;;5004755;28;20571;-72
2023/10/26 10:35:08;;;;;;;2.92;1.38;;;;;;;;;;5014596;28;20034;-72
2023/10/26 10:37:33;;;;;;;3.33;1.63;;;;;;;;;;4996700;28;20034;-72
2023/10/26 10:40:14;;;;;;;4.22;1.80;;;;;;;;;;5014606;28;20041;-72
2023/10/26 10:42:50;;;;;;;3.60;2.13;;;;;;;;;;5005350;28;20033;-72
2023/10/26 10:45:17;;;;;;;2.67;1.27;;;;;;;;;;4986757;28;20030;-71
2023/10/26 10:47:43;;;;;;;2.85;1.40;;;;;;;;;;5007328;28;20022;-72
2023/10/26 10:50:20;;;;;;;3.17;1.40;;;;;;;;;;4993954;28;20494;-72
2023/10/26 10:52:47;;;;;;;2.97;1.60;;;;;;;;;;4991395;28;20110;-71
2023/10/26 10:55:19;;;;;;;2.50;1.35;;;;;;;;;;4968250;28;20046;-72
2023/10/26 10:57:52;;;;;;;4.53;1.58;;;;;;;;;;5008828;28;20027;-72
2023/10/26 11:00:18;;;;;;;4.25;1.55;;;;;;;;;;4995245;28;20030;-72
2023/10/26 11:02:47;;;;;;;3.03;1.23;;;;;;;;;;4996537;28;20033;-72
2023/10/26 11:05:13;;;;;;;4.60;1.63;;;;;;;;;;4984859;28;20040;-72
2023/10/26 11:07:40;;;;;;;3.85;1.73;;;;;;;;;;5009651;28;20030;-72
2023/10/26 11:10:06;;;;;;;3.63;1.58;;;;;;;;;;5013473;28;20025;-72
2023/10/26 11:12:31;;;;;;;5.88;1.77;;;;;;;;;;5013920;28;20034;-72
2023/10/26 11:14:57;;;;;;;2.55;1.30;;;;;;;;;;4996131;28;20052;-72
2023/10/26 11:17:24;;;;;;;2.05;1.30;;;;;;;;;;5013489;28;20033;-72
2023/10/26 11:19:49;;;;;;;2.47;1.35;;;;;;;;;;4996349;28;20022;-72
2023/10/26 11:22:15;;;;;;;5.10;1.30;;;;;;;;;;5013003;28;20064;-72
2023/10/26 11:24:41;;;;;;;3.58;1.48;;;;;;;;;;5013847;28;20028;-72
2023/10/26 11:27:12;;;;;;;2.22;1.50;;;;;;;;;;4995678;28;20105;-72
2023/10/26 11:29:38;;;;;;;3.10;1.50;;;;;;;;;;4996521;28;20017;-72
2023/10/26 11:32:16;;;;;;;6.90;1.75;;;;;;;;;;5013863;28;20067;-72
2023/10/26 11:35:05;;;;;;;2.90;1.48;;;;;;;;;;4996191;28;20113;-72
2023/10/26 11:37:31;;;;;;;1.95;1.30;;;;;;;;;;5008142;28;20022;-72
2023/10/26 11:39:57;;;;;;;3.65;1.33;;;;;;;;;;4996219;28;20038;-71
2023/10/26 11:42:47;;;;;;;4.00;1.45;;;;;;;;;;4996041;28;20022;-72
2023/10/26 11:45:17;;;;;;;3.28;1.20;;;;;;;;;;5009181;28;20109;-72
2023/10/26 11:47:50;;;;;;;4.72;1.40;;;;;;;;;;4996132;28;20110;-72
2023/10/26 11:50:28;;;;;;;2.08;1.17;;;;;;;;;;5014293;28;20014;-72
2023/10/26 11:52:56;;;;;;;2.20;1.63;;;;;;;;;;4996277;28;20022;-72
2023/10/26 11:55:22;;;;;;;3.35;1.58;;;;;;;;;;4994357;28;20026;-72
2023/10/26 11:57:48;;;;;;;3.20;1.50;;;;;;;;;;4990323;28;20077;-72
2023/10/26 12:00:15;;;;;;;3.83;1.13;;;;;;;;;;4993378;28;20030;-71
2023/10/26 12:02:41;;;;;;;3.03;1.40;;;;;;;;;;4986006;28;20030;-72
2023/10/26 12:05:07;;;;;;;1.92;1.35;;;;;;;;;;4976241;28;20030;-72
2023/10/26 12:07:33;;;;;;;1.80;1.15;;;;;;;;;;5008322;28;20033;-72
2023/10/26 12:09:58;;;;;;;4.00;1.27;;;;;;;;;;4995229;28;20092;-72
2023/10/26 12:12:25;;;;;;;4.20;1.25;;;;;;;;;;5011775;28;20089;-73
2023/10/26 12:14:50;;;;;;;1.85;1.40;;;;;;;;;;5007299;28;20155;-72
2023/10/26 12:17:15;;;;;;;2.45;1.40;;;;;;;;;;5013202;28;20101;-72
2023/10/26 12:19:40;;;;;;;2.55;1.58;;;;;;;;;;4995095;28;20021;-72
2023/10/26 12:22:06;;;;;;;2.95;1.52;;;;;;;;;;5013441;28;20029;-72
2023/10/26 12:24:32;;;;;;;2.20;1.30;;;;;;;;;;5012867;28;20033;-71
2023/10/26 12:26:59;;;;;;;2.63;1.60;;;;;;;;;;5012884;28;20497;-72
2023/10/26 12:29:24;;;;;;;2.17;1.35;;;;;;;;;;4995487;28;20022;-72
2023/10/26 12:31:50;;;;;;;2.00;1.40;;;;;;;;;;4995275;28;20033;-72
2023/10/26 12:34:15;;;;;;;2.42;1.52;;;;;;;;;;5012892;28;20045;-72
2023/10/26 12:36:40;;;;;;;2.63;1.27;;;;;;;;;;5013064;28;20034;-72
2023/10/26 12:39:05;;;;;;;3.13;1.45;;;;;;;;;;4996618;28;20025;-72
2023/10/26 12:41:31;;;;;;;3.22;1.58;;;;;;;;;;5016511;28;20517;-72
2023/10/26 12:43:56;;;;;;;2.10;1.45;;;;;;;;;;5016157;28;20033;-71
2023/10/26 12:46:22;;;;;;;4.13;1.80;;;;;;;;;;4995028;28;20035;-72
2023/10/26 12:48:48;;;;;;;2.33;1.88;;;;;;;;;;5000091;28;20070;-72
2023/10/26 12:51:13;;;;;;;3.47;1.70;;;;;;;;;;4979356;28;20033;-72
2023/10/26 12:53:38;;;;;;;2.47;1.70;;;;;;;;;;5004593;28;20026;-72
2023/10/26 12:56:05;;;;;;;3.33;1.58;;;;;;;;;;4998767;28;20160;-72
2023/10/26 12:58:31;;;;;;;2.67;2.38;;;;;;;;;;4994007;28;20407;-72
2023/10/26 13:00:56;;;;;;;5.20;1.70;;;;;;;;;;4979738;28;20022;-71
2023/10/26 13:03:22;;;;;;;2.53;1.55;;;;;;;;;;4997854;28;20028;-72
2023/10/26 13:05:47;;;;;;;2.55;1.60;;;;;;;;;;5015856;28;20033;-72
2023/10/26 13:08:12;;;;;;;5.80;1.40;;;;;;;;;;5015511;28;20022;-72
2023/10/26 13:10:38;;;;;;;3.17;1.40;;;;;;;;;;5015997;28;20444;-72
2023/10/26 13:13:03;;;;;;;4.50;2.03;;;;;;;;;;5014605;28;20109;-72
2023/10/26 13:15:28;;;;;;;2.80;1.73;;;;;;;;;;5014526;28;20498;-72
2023/10/26 13:17:53;;;;;;;5.63;1.73;;;;;;;;;;5011628;28;20025;-72
2023/10/26 13:20:19;;;;;;;4.38;1.70;;;;;;;;;;4997658;28;20026;-72
2023/10/26 13:22:44;;;;;;;3.50;1.85;;;;;;;;;;5016526;28;20029;-71
2023/10/26 13:25:09;;;;;;;3.35;1.67;;;;;;;;;;5015503;28;20029;-72
2023/10/26 13:27:35;;;;;;;4.35;1.80;;;;;;;;;;4998303;28;20029;-72
2023/10/26 13:30:00;;;;;;;3.45;1.60;;;;;;;;;;5014092;28;20105;-72
2023/10/26 13:32:26;;;;;;;5.00;2.05;;;;;;;;;;4994457;28;20026;-72
2023/10/26 13:34:52;;;;;;;5.47;2.10;;;;;;;;;;4995936;28;20034;-72
2023/10/26 13:37:18;;;;;;;3.88;1.55;;;;;;;;;;4999476;28;20031;-72
2023/10/26 13:39:43;;;;;;;4.45;1.95;;;;;;;;;;4997872;28;20502;-72
2023/10/26 13:42:09;;;;;;;3.25;2.05;;;;;;;;;;5013959;28;20597;-72
2023/10/26 13:44:34;;;;;;;4.80;1.92;;;;;;;;;;4999508;28;20033;-72
2023/10/26 13:46:59;;;;;;;4.18;2.00;;;;;;;;;;4995383;28;20084;-71
2023/10/26 13:49:24;;;;;;;3.63;2.25;;;;;;;;;;5005638;28;20391;-71
2023/10/26 13:51:50;;;;;;;3.90;1.85;;;;;;;;;;4997127;28;20124;-72
2023/10/26 13:54:16;;;;;;;3.00;1.90;;;;;;;;;;5014647;28;20097;-73
2023/10/26 13:56:41;;;;;;;4.00;1.80;;;;;;;;;;5015103;28;20040;-72
2023/10/26 13:59:06;;;;;;;4.50;2.00;;;;;;;;;;5014393;28;20026;-72
2023/10/26 14:01:31;;;;;;;2.67;1.58;;;;;;;;;;4995730;28;20021;-72
2023/10/26 14:03:57;;;;;;;3.05;1.75;;;;;;;;;;5004010;28;20065;-72
2023/10/26 14:06:25;;;;;;;2.72;1.67;;;;;;;;;;4997233;28;20037;-72
2023/10/26 14:08:52;;;;;;;5.07;2.10;;;;;;;;;;4997803;28;20040;-72
2023/10/26 14:11:17;;;;;;;2.90;1.63;;;;;;;;;;4997168;28;20030;-72
2023/10/26 14:13:43;;;;;;;4.18;1.63;;;;;;;;;;5015047;28;20125;-72
2023/10/26 14:16:11;;;;;;;4.07;1.67;;;;;;;;;;5013670;28;20017;-72
2023/10/26 14:18:36;;;;;;;2.85;1.80;;;;;;;;;;4993533;28;20081;-72
2023/10/26 14:21:03;;;;;;;4.50;2.08;;;;;;;;;;4995444;28;20026;-71
2023/10/26 14:23:28;;;;;;;3.85;1.90;;;;;;;;;;4995188;28;20403;-71
2023/10/26 14:25:54;;;;;;;4.53;1.80;;;;;;;;;;4983854;28;20023;-72
2023/10/26 14:28:19;;;;;;;2.83;1.67;;;;;;;;;;4977703;28;20027;-71
2023/10/26 14:30:44;;;;;;;5.53;2.10;;;;;;;;;;4996978;28;20023;-71
2023/10/26 14:33:10;;;;;;;3.90;1.90;;;;;;;;;;5014504;28;20030;-72
2023/10/26 14:35:35;;;;;;;2.55;1.70;;;;;;;;;;5014056;28;20176;-72
2023/10/26 14:38:01;;;;;;;3.08;1.58;;;;;;;;;;4989475;28;20153;-71
2023/10/26 14:40:26;;;;;;;3.58;2.03;;;;;;;;;;4994728;28;20027;-72
2023/10/26 14:42:52;;;;;;;3.67;1.90;;;;;;;;;;4979882;28;20055;-72
2023/10/26 14:45:17;;;;;;;5.18;2.00;;;;;;;;;;5013872;28;20026;-71
2023/10/26 14:47:42;;;;;;;3.03;1.67;;;;;;;;;;5014164;28;20022;-72
2023/10/26 14:50:08;;;;;;;5.05;2.00;;;;;;;;;;5014321;28;20018;-71
2023/10/26 14:52:33;;;;;;;4.80;2.05;;;;;;;;;;4996573;28;20507;-72
2023/10/26 14:54:58;;;;;;;4.78;1.90;;;;;;;;;;4995924;28;20475;-72
2023/10/26 14:57:23;;;;;;;3.97;1.90;;;;;;;;;;5008618;28;20023;-71
2023/10/26 14:59:49;;;;;;;3.78;2.00;;;;;;;;;;4988693;28;20470;-71
2023/10/26 15:02:14;;;;;;;2.40;1.60;;;;;;;;;;5013530;28;20025;-72
2023/10/26 15:04:40;;;;;;;3.65;2.47;;;;;;;;;;5013842;28;20380;-71
2023/10/26 15:07:05;;;;;;;5.18;1.83;;;;;;;;;;5013859;28;20072;-72
2023/10/26 15:09:33;;;;;;;4.57;2.40;;;;;;;;;;4996059;28;20383;-72
2023/10/26 15:11:58;;;;;;;3.78;1.77;;;;;;;;;;5013578;28;20547;-72
2023/10/26 15:14:23;;;;;;;4.82;2.75;;;;;;;;;;4996134;28;20042;-72
2023/10/26 15:16:49;;;;;;;4.63;1.83;;;;;;;;;;5013388;28;20112;-72
2023/10/26 15:19:14;;;;;;;3.28;2.13;;;;;;;;;;5011879;28;20033;-72
2023/10/26 15:21:39;;;;;;;3.47;1.98;;;;;;;;;;5013705;28;20033;-72
2023/10/26 15:24:05;;;;;;;3.15;1.85;;;;;;;;;;5013496;28;20113;-71
2023/10/26 15:26:30;;;;;;;4.70;2.35;;;;;;;;;;4996361;28;20395;-72
2023/10/26 15:28:55;;;;;;;3.05;1.80;;;;;;;;;;5013588;28;20021;-71
2023/10/26 15:31:20;;;;;;;4.00;2.58;;;;;;;;;;4992124;28;20399;-72
2023/10/26 15:33:46;;;;;;;7.50;2.10;;;;;;;;;;4992262;28;20038;-71
2023/10/26 15:36:11;;;;;;;4.88;1.92;;;;;;;;;;4999005;28;20084;-71
2023/10/26 15:38:40;;;;;;;4.28;2.13;;;;;;;;;;5014470;28;20491;-72
2023/10/26 15:41:06;;;;;;;4.57;2.05;;;;;;;;;;4997376;28;20051;-72
2023/10/26 15:43:32;;;;;;;3.58;2.17;;;;;;;;;;4990286;28;20080;-71
2023/10/26 15:45:58;;;;;;;4.43;2.20;;;;;;;;;;4976625;28;20476;-71
2023/10/26 15:48:24;;;;;;;3.42;2.20;;;;;;;;;;4983244;28;20022;-72
2023/10/26 15:50:49;;;;;;;2.15;1.63;;;;;;;;;;4996290;28;20044;-72
2023/10/26 15:53:14;;;;;;;5.38;1.50;;;;;;;;;;5012810;28;20022;-72
2023/10/26 15:55:40;;;;;;;5.88;1.77;;;;;;;;;;5013628;28;20034;-71
2023/10/26 15:58:06;;;;;;;5.82;3.10;;;;;;;;;;4995818;28;20401;-72
2023/10/26 16:00:31;;;;;;;4.57;1.70;;;;;;;;;;4995723;28;20491;-72